Time;durP1;ratioP1;P1;durP2;ratioP2;P2;SDS_P1;SDS_P2;PMS_P1;PMS_P2;Temp;Humidity;BMP_temperature;BMP_pressure;BME280_temperature;BME280_humidity;BME280_pressure;Samples;Min_cycle;Max_cycle;Signal;HPM_P1;HPM_P2
2022/11/18 00:01:47;;;;;;;15.80;4.95;;;9.70;99.90;;;;;;4962575;28;20390;-65
2022/11/18 00:04:12;;;;;;;18.73;6.03;;;9.80;99.90;;;;;;4957487;28;20035;-66
2022/11/18 00:06:38;;;;;;;19.52;7.32;;;9.80;99.90;;;;;;4956581;28;20043;-66
2022/11/18 00:09:04;;;;;;;16.25;6.22;;;9.80;99.90;;;;;;4948820;28;20825;-65
2022/11/18 00:14:21;;;;;;;12.13;5.30;;;9.70;99.90;;;;;;4944488;28;20038;-65
2022/11/18 00:16:50;;;;;;;12.05;4.70;;;9.80;99.90;;;;;;4950596;28;20043;-65
2022/11/18 00:19:18;;;;;;;9.38;4.47;;;9.70;99.90;;;;;;4942818;28;20506;-65
2022/11/18 00:21:43;;;;;;;9.57;4.05;;;9.70;99.90;;;;;;4941824;28;20032;-66
2022/11/18 00:24:09;;;;;;;10.68;4.93;;;9.70;99.90;;;;;;4941893;28;20549;-66
2022/11/18 00:26:35;;;;;;;7.70;3.55;;;9.80;99.90;;;;;;4951498;28;20042;-65
2022/11/18 00:29:01;;;;;;;10.38;3.88;;;9.90;99.90;;;;;;4948363;28;20679;-66
2022/11/18 00:31:27;;;;;;;5.32;3.28;;;10.00;99.90;;;;;;4946223;28;20044;-65
2022/11/18 00:33:52;;;;;;;11.30;3.83;;;10.00;99.90;;;;;;4950818;28;20047;-65
2022/11/18 00:36:18;;;;;;;7.25;3.42;;;10.00;99.90;;;;;;4942084;28;20034;-65
2022/11/18 00:38:44;;;;;;;10.35;3.28;;;10.10;99.90;;;;;;4949201;28;20722;-65
2022/11/18 00:41:14;;;;;;;8.23;2.85;;;10.00;99.90;;;;;;4944690;28;20494;-65
2022/11/18 00:43:41;;;;;;;10.23;3.72;;;9.90;99.90;;;;;;4939448;28;20032;-65
2022/11/18 00:46:08;;;;;;;7.53;3.15;;;10.00;99.90;;;;;;4951040;28;20039;-66
2022/11/18 00:48:34;;;;;;;8.00;3.30;;;10.00;99.90;;;;;;4944935;28;20039;-65
2022/11/18 00:51:13;;;;;;;7.75;2.90;;;10.00;99.90;;;;;;4946174;28;20039;-66
2022/11/18 00:53:39;;;;;;;6.90;3.10;;;9.90;99.90;;;;;;4942369;28;20146;-66
2022/11/18 00:56:04;;;;;;;7.72;3.20;;;9.90;99.90;;;;;;4944658;28;20031;-65
2022/11/18 00:58:30;;;;;;;7.75;2.80;;;9.80;99.90;;;;;;4947811;28;20085;-65
2022/11/18 01:00:56;;;;;;;10.68;3.70;;;9.70;99.90;;;;;;4946653;28;20046;-66
2022/11/18 01:03:21;;;;;;;7.90;3.17;;;9.70;99.90;;;;;;4941768;28;20111;-66
2022/11/18 01:05:47;;;;;;;7.70;3.30;;;9.90;99.90;;;;;;4943226;28;20046;-67
2022/11/18 01:08:13;;;;;;;8.23;3.33;;;10.00;99.90;;;;;;4946681;28;20376;-68
2022/11/18 01:10:40;;;;;;;10.73;3.33;;;9.90;99.90;;;;;;4940602;28;20535;-67
2022/11/18 01:13:18;;;;;;;8.20;3.22;;;9.80;99.90;;;;;;4940007;28;20028;-66
2022/11/18 01:15:56;;;;;;;6.63;3.20;;;9.80;99.90;;;;;;4951055;28;20058;-66
2022/11/18 01:18:27;;;;;;;10.20;3.88;;;9.90;99.90;;;;;;4936455;28;20094;-67
2022/11/18 01:20:53;;;;;;;10.77;3.90;;;10.00;99.90;;;;;;4941038;28;20389;-67
2022/11/18 01:23:19;;;;;;;8.77;4.07;;;10.10;99.90;;;;;;4943338;28;20038;-66
2022/11/18 01:25:47;;;;;;;8.20;4.22;;;10.00;99.90;;;;;;4942057;28;20035;-66
2022/11/18 01:28:13;;;;;;;6.15;3.75;;;10.10;99.90;;;;;;4943451;28;20103;-66
2022/11/18 01:30:40;;;;;;;10.07;3.80;;;10.20;99.90;;;;;;4943062;28;20081;-66
2022/11/18 01:33:07;;;;;;;10.68;3.65;;;10.00;99.90;;;;;;4932234;28;20035;-67
2022/11/18 01:35:37;;;;;;;8.93;3.60;;;10.10;99.90;;;;;;4942965;28;20652;-66
2022/11/18 01:38:03;;;;;;;7.53;3.90;;;10.00;99.90;;;;;;4944439;28;20141;-66
2022/11/18 01:40:29;;;;;;;9.20;3.78;;;10.00;99.90;;;;;;4943574;28;20107;-67
2022/11/18 01:42:55;;;;;;;9.40;3.90;;;10.00;99.90;;;;;;4949374;28;20110;-66
2022/11/18 01:45:30;;;;;;;9.02;3.63;;;10.00;99.90;;;;;;4946806;28;20024;-66
2022/11/18 01:48:08;;;;;;;7.45;3.70;;;10.00;99.90;;;;;;4941004;28;20054;-66
2022/11/18 01:50:37;;;;;;;9.40;4.03;;;10.00;99.90;;;;;;4955748;28;20039;-67
2022/11/18 01:53:10;;;;;;;9.43;3.72;;;10.10;99.90;;;;;;4938396;28;20054;-66
2022/11/18 01:55:40;;;;;;;9.93;3.38;;;10.00;99.90;;;;;;4943272;28;20039;-67
2022/11/18 01:58:14;;;;;;;9.60;4.40;;;10.00;99.90;;;;;;4943113;28;20043;-67
2022/11/18 02:00:40;;;;;;;9.80;4.00;;;10.00;99.90;;;;;;4961856;28;20050;-67
2022/11/18 02:03:07;;;;;;;9.07;3.78;;;10.00;99.90;;;;;;4936448;28;20118;-66
2022/11/18 02:05:33;;;;;;;10.18;3.97;;;10.00;99.90;;;;;;4943277;28;20550;-66
2022/11/18 02:08:00;;;;;;;8.55;4.10;;;10.00;99.90;;;;;;4941584;28;20798;-66
2022/11/18 02:10:25;;;;;;;9.07;3.78;;;10.00;99.90;;;;;;4939530;28;20162;-66
2022/11/18 02:12:57;;;;;;;10.23;4.20;;;10.00;99.90;;;;;;4945763;28;20119;-67
2022/11/18 02:15:38;;;;;;;9.85;4.15;;;9.90;99.90;;;;;;4944653;28;20479;-67
2022/11/18 02:18:24;;;;;;;11.38;3.70;;;9.90;99.90;;;;;;4948483;28;20410;-64
2022/11/18 02:21:12;;;;;;;14.57;4.13;;;9.90;99.90;;;;;;4944338;28;20487;-67
2022/11/18 02:23:50;;;;;;;8.65;3.58;;;9.90;99.90;;;;;;4946710;28;20046;-67
2022/11/18 02:26:54;;;;;;;12.40;3.78;;;9.80;99.90;;;;;;4947992;28;20163;-67
2022/11/18 02:29:31;;;;;;;9.43;3.70;;;9.90;99.90;;;;;;4913938;28;20028;-67
2022/11/18 02:32:22;;;;;;;7.45;3.67;;;9.90;99.90;;;;;;4944395;28;20779;-66
2022/11/18 02:34:56;;;;;;;8.95;3.88;;;9.80;99.90;;;;;;4938157;28;20058;-67
2022/11/18 02:37:46;;;;;;;13.63;3.90;;;9.80;99.90;;;;;;4960983;28;20235;-66
2022/11/18 02:40:48;;;;;;;9.80;3.80;;;9.90;99.90;;;;;;4959601;28;20139;-67
2022/11/18 02:43:17;;;;;;;8.43;3.47;;;9.80;99.90;;;;;;4942909;28;20090;-67
2022/11/18 02:45:48;;;;;;;9.23;3.88;;;9.70;99.90;;;;;;4942817;28;20051;-67
2022/11/18 02:48:16;;;;;;;12.48;3.92;;;9.80;99.90;;;;;;4943014;28;20097;-66
2022/11/18 02:50:44;;;;;;;11.43;3.88;;;9.80;99.90;;;;;;4939405;28;20039;-67
2022/11/18 02:53:13;;;;;;;11.30;3.72;;;9.90;99.90;;;;;;4942440;28;20032;-67
2022/11/18 02:55:40;;;;;;;9.75;3.38;;;9.70;99.90;;;;;;4944642;28;20465;-66
2022/11/18 02:58:07;;;;;;;9.38;3.63;;;9.70;99.90;;;;;;4957982;28;20479;-67
2022/11/18 03:00:34;;;;;;;10.68;3.80;;;9.70;99.90;;;;;;4946257;28;20511;-66
2022/11/18 03:03:30;;;;;;;10.18;3.80;;;9.70;99.90;;;;;;4944933;28;20035;-67
2022/11/18 03:06:19;;;;;;;11.60;4.00;;;9.70;99.90;;;;;;4940228;28;20037;-67
2022/11/18 03:08:57;;;;;;;10.73;3.97;;;9.70;99.90;;;;;;4940793;29;20067;-67
2022/11/18 03:11:27;;;;;;;8.50;3.45;;;9.70;99.90;;;;;;4936853;28;20491;-67
2022/11/18 03:14:17;;;;;;;9.55;3.35;;;9.60;99.90;;;;;;4943327;28;20119;-66
2022/11/18 03:17:29;;;;;;;9.80;3.65;;;9.70;99.90;;;;;;4950562;28;20510;-66
2022/11/18 03:20:06;;;;;;;9.57;3.65;;;9.70;99.90;;;;;;4946469;28;20039;-66
2022/11/18 03:22:36;;;;;;;11.20;3.80;;;9.70;99.90;;;;;;4942374;28;20106;-66
2022/11/18 03:25:19;;;;;;;8.32;3.70;;;9.70;99.90;;;;;;4943890;28;20031;-66
2022/11/18 03:28:21;;;;;;;7.60;3.40;;;9.80;99.90;;;;;;4939392;28;20403;-66
2022/11/18 03:30:55;;;;;;;7.75;3.55;;;9.80;99.90;;;;;;4939758;28;20615;-67
2022/11/18 03:33:27;;;;;;;13.68;4.13;;;9.70;99.90;;;;;;4941768;28;20184;-66
2022/11/18 03:35:55;;;;;;;6.95;3.63;;;9.60;99.90;;;;;;4943505;28;20035;-67
2022/11/18 03:38:28;;;;;;;7.00;3.40;;;9.70;99.90;;;;;;4958089;28;20031;-66
2022/11/18 03:40:59;;;;;;;9.25;4.05;;;9.80;99.90;;;;;;4942482;28;20043;-66
2022/11/18 03:43:30;;;;;;;8.40;3.47;;;9.80;99.90;;;;;;4941503;28;20066;-66
2022/11/18 03:46:31;;;;;;;7.97;3.95;;;9.70;99.90;;;;;;4943418;28;20442;-67
2022/11/18 03:48:58;;;;;;;9.07;4.03;;;9.70;99.90;;;;;;4949012;28;20035;-66
2022/11/18 03:51:38;;;;;;;13.77;3.60;;;9.70;99.90;;;;;;4963613;28;20031;-65
2022/11/18 03:54:24;;;;;;;10.55;3.63;;;9.70;99.90;;;;;;4966899;28;20513;-66
2022/11/18 03:57:08;;;;;;;12.02;4.10;;;9.70;99.90;;;;;;4972014;28;20031;-66
2022/11/18 03:59:45;;;;;;;9.63;3.42;;;9.70;99.90;;;;;;4955531;28;20767;-66
2022/11/18 04:02:20;;;;;;;10.40;3.50;;;9.60;99.90;;;;;;4961397;28;20077;-67
2022/11/18 04:04:49;;;;;;;10.88;3.72;;;9.60;99.90;;;;;;4971357;28;20719;-66
2022/11/18 04:07:29;;;;;;;9.25;3.28;;;9.60;99.90;;;;;;4962974;28;20198;-66
2022/11/18 04:10:01;;;;;;;9.80;3.72;;;9.70;99.90;;;;;;4969452;28;20537;-66
2022/11/18 04:12:32;;;;;;;9.70;4.10;;;9.60;99.90;;;;;;4969812;28;21012;-67
2022/11/18 04:14:58;;;;;;;10.23;3.13;;;9.60;99.90;;;;;;4964162;28;20042;-66
2022/11/18 04:17:27;;;;;;;8.63;3.60;;;9.60;99.90;;;;;;4974645;28;20110;-66
2022/11/18 04:19:52;;;;;;;8.82;3.72;;;9.70;99.90;;;;;;4968573;28;20031;-66
2022/11/18 04:22:19;;;;;;;11.35;3.38;;;9.60;99.90;;;;;;4968490;28;20057;-66
2022/11/18 04:24:44;;;;;;;11.57;4.03;;;9.60;99.90;;;;;;4966110;28;20045;-67
2022/11/18 04:27:10;;;;;;;6.57;3.33;;;9.60;99.90;;;;;;4971016;28;20039;-68
2022/11/18 04:29:35;;;;;;;7.40;3.33;;;9.60;99.90;;;;;;4967850;28;20169;-67
2022/11/18 04:32:02;;;;;;;7.93;3.20;;;9.60;99.90;;;;;;4965621;28;20129;-67
2022/11/18 04:34:30;;;;;;;8.25;3.05;;;9.70;99.90;;;;;;4950926;28;20064;-67
2022/11/18 04:36:56;;;;;;;12.05;3.33;;;9.70;99.90;;;;;;4957588;28;20214;-67
2022/11/18 04:39:22;;;;;;;8.18;3.50;;;9.70;99.90;;;;;;4945054;28;20423;-67
2022/11/18 04:41:57;;;;;;;12.48;3.45;;;9.70;99.90;;;;;;4941146;28;20040;-67
2022/11/18 04:44:27;;;;;;;7.97;3.25;;;9.70;99.90;;;;;;4941897;28;20053;-66
2022/11/18 04:46:54;;;;;;;10.98;3.25;;;9.70;99.90;;;;;;4946449;28;20035;-66
2022/11/18 04:49:21;;;;;;;6.28;2.65;;;9.80;99.90;;;;;;4952412;28;20530;-67
2022/11/18 04:51:46;;;;;;;9.80;3.20;;;9.70;99.90;;;;;;4957273;28;20058;-66
2022/11/18 04:54:13;;;;;;;8.68;3.17;;;9.80;99.90;;;;;;4936835;28;20839;-66
2022/11/18 04:56:38;;;;;;;7.68;2.90;;;9.80;99.90;;;;;;4956127;28;20119;-66
2022/11/18 04:59:04;;;;;;;9.90;3.22;;;9.70;99.90;;;;;;4955799;28;20563;-66
2022/11/18 05:01:31;;;;;;;11.52;3.08;;;9.70;99.90;;;;;;4941618;28;20039;-65
2022/11/18 05:03:58;;;;;;;10.60;3.38;;;9.70;99.90;;;;;;4936588;28;20139;-67
2022/11/18 05:06:24;;;;;;;8.02;3.05;;;9.70;99.90;;;;;;4950607;28;20031;-66
2022/11/18 05:08:49;;;;;;;9.02;3.03;;;9.70;99.90;;;;;;4936960;28;20042;-67
2022/11/18 05:13:59;;;;;;;9.60;2.47;;;9.60;99.90;;;;;;4941580;28;20046;-66
2022/11/18 05:16:25;;;;;;;7.40;2.95;;;9.70;99.90;;;;;;4941105;28;20481;-66
2022/11/18 05:18:50;;;;;;;7.65;2.90;;;9.60;99.90;;;;;;4936576;28;20047;-67
2022/11/18 05:21:16;;;;;;;11.07;3.40;;;9.60;99.90;;;;;;4939480;28;20094;-66
2022/11/18 05:23:42;;;;;;;6.18;2.85;;;9.70;99.90;;;;;;4935470;28;20091;-66
2022/11/18 05:26:10;;;;;;;7.88;2.70;;;9.70;99.90;;;;;;4953109;28;20491;-65
2022/11/18 05:28:35;;;;;;;7.43;2.75;;;9.70;99.90;;;;;;4937866;28;20042;-66
2022/11/18 05:31:12;;;;;;;5.78;2.63;;;9.60;99.90;;;;;;4934909;28;20027;-66
2022/11/18 05:33:38;;;;;;;7.18;2.92;;;9.60;99.90;;;;;;4937196;28;20117;-67
2022/11/18 05:36:09;;;;;;;7.93;3.05;;;9.50;99.90;;;;;;4942723;28;20039;-66
2022/11/18 05:38:35;;;;;;;8.13;3.00;;;9.50;99.90;;;;;;4955846;28;20032;-66
2022/11/18 05:41:01;;;;;;;5.30;2.60;;;9.60;99.90;;;;;;4941799;28;20039;-66
2022/11/18 05:43:27;;;;;;;4.85;2.63;;;9.50;99.90;;;;;;4940870;28;20027;-66
2022/11/18 05:45:52;;;;;;;8.77;3.08;;;9.50;99.90;;;;;;4942503;28;20440;-66
2022/11/18 05:48:19;;;;;;;8.82;2.75;;;9.60;99.90;;;;;;4949189;28;20038;-66
2022/11/18 05:50:49;;;;;;;5.47;2.70;;;9.50;99.90;;;;;;4945668;28;20736;-66
2022/11/18 05:53:16;;;;;;;5.97;2.67;;;9.40;99.90;;;;;;4937846;28;20044;-66
2022/11/18 05:56:10;;;;;;;8.63;2.92;;;9.40;99.90;;;;;;4943968;28;20054;-66
2022/11/18 05:58:36;;;;;;;6.95;2.90;;;9.30;99.90;;;;;;4944891;28;20125;-67
2022/11/18 06:01:04;;;;;;;6.10;3.22;;;9.30;99.90;;;;;;4942560;28;20473;-66
2022/11/18 06:03:35;;;;;;;7.28;2.78;;;9.30;99.90;;;;;;4942257;28;20579;-66
2022/11/18 06:06:02;;;;;;;7.43;2.63;;;9.30;99.90;;;;;;4941681;28;20039;-66
2022/11/18 06:08:33;;;;;;;9.05;3.08;;;9.30;99.90;;;;;;4938356;28;20146;-66
2022/11/18 06:10:59;;;;;;;6.65;3.13;;;9.30;99.90;;;;;;4953310;28;20035;-66
2022/11/18 06:13:32;;;;;;;5.57;3.20;;;9.30;99.90;;;;;;4941685;28;20023;-66
2022/11/18 06:15:58;;;;;;;10.00;3.45;;;9.30;99.90;;;;;;4940337;28;20414;-66
2022/11/18 06:18:30;;;;;;;9.38;3.20;;;9.40;99.90;;;;;;4943263;28;20027;-66
2022/11/18 06:20:59;;;;;;;7.00;2.83;;;9.30;99.90;;;;;;4948108;28;20039;-65
2022/11/18 06:23:29;;;;;;;9.68;3.33;;;9.30;99.90;;;;;;4949218;28;20034;-66
2022/11/18 06:25:55;;;;;;;7.97;2.90;;;9.30;99.90;;;;;;4943335;28;20035;-66
2022/11/18 06:28:22;;;;;;;7.50;2.88;;;9.30;99.90;;;;;;4943809;28;20128;-66
2022/11/18 06:30:48;;;;;;;8.32;3.20;;;9.30;99.90;;;;;;4940320;28;20115;-67
2022/11/18 06:33:13;;;;;;;10.10;3.50;;;9.20;99.90;;;;;;4938591;28;20803;-67
2022/11/18 06:35:41;;;;;;;7.45;3.20;;;9.20;99.90;;;;;;4944841;28;20039;-67
2022/11/18 06:38:06;;;;;;;8.48;3.72;;;9.40;99.90;;;;;;4939025;29;20150;-67
2022/11/18 06:40:34;;;;;;;12.45;4.07;;;9.30;99.90;;;;;;4934060;28;20360;-67
2022/11/18 06:46:54;;;;;;;9.75;3.40;;;9.40;99.90;;;;;;4942759;28;20193;-67
2022/11/18 06:48:34;;;;;;;9.10;3.63;;;9.30;99.90;;;;;;4939583;28;20050;-67
2022/11/18 06:50:59;;;;;;;8.00;3.67;;;9.30;99.90;;;;;;4938352;28;20031;-67
2022/11/18 06:53:25;;;;;;;10.00;3.70;;;9.30;99.90;;;;;;4937666;28;20126;-67
2022/11/18 06:55:50;;;;;;;8.65;3.70;;;9.30;99.90;;;;;;4943112;29;20122;-67
2022/11/18 06:58:16;;;;;;;11.02;3.38;;;9.30;99.90;;;;;;4942452;28;20517;-67
2022/11/18 07:00:41;;;;;;;9.27;3.88;;;9.30;99.90;;;;;;4940000;28;20530;-67
2022/11/18 07:03:07;;;;;;;7.22;3.75;;;9.40;99.90;;;;;;4936205;28;20495;-66
2022/11/18 07:05:32;;;;;;;10.50;4.03;;;9.40;99.90;;;;;;4936470;28;20471;-66
2022/11/18 07:07:58;;;;;;;9.25;3.80;;;9.50;99.90;;;;;;4951211;28;20034;-65
2022/11/18 07:10:23;;;;;;;13.00;3.58;;;9.50;99.90;;;;;;4955892;28;20467;-65
2022/11/18 07:12:49;;;;;;;9.18;3.90;;;9.50;99.90;;;;;;4939216;28;20066;-65
2022/11/18 07:15:14;;;;;;;10.68;3.78;;;9.50;99.90;;;;;;4941651;28;20117;-65
2022/11/18 07:17:40;;;;;;;7.70;4.00;;;9.50;99.90;;;;;;4939163;28;20455;-65
2022/11/18 07:20:06;;;;;;;8.02;3.60;;;9.50;99.90;;;;;;4933614;28;20044;-65
2022/11/18 07:22:32;;;;;;;7.38;3.70;;;9.50;99.90;;;;;;4947254;28;20141;-65
2022/11/18 07:24:57;;;;;;;8.68;3.45;;;9.50;99.90;;;;;;4942704;28;20078;-65
2022/11/18 07:27:23;;;;;;;11.60;3.75;;;9.50;99.90;;;;;;4940918;28;20065;-65
2022/11/18 07:29:48;;;;;;;9.20;3.90;;;9.40;99.90;;;;;;4943403;28;20082;-65
2022/11/18 07:32:14;;;;;;;9.38;3.70;;;9.30;99.90;;;;;;4962012;28;20039;-65
2022/11/18 07:34:39;;;;;;;6.75;4.13;;;9.40;99.90;;;;;;4951521;28;20116;-65
2022/11/18 07:37:05;;;;;;;5.82;3.80;;;9.50;99.90;;;;;;4945956;28;20035;-65
2022/11/18 07:39:31;;;;;;;9.90;3.63;;;9.40;99.90;;;;;;4949033;28;20035;-64
2022/11/18 07:41:56;;;;;;;16.08;3.97;;;9.40;99.90;;;;;;4960553;28;20039;-64
2022/11/18 07:44:22;;;;;;;6.38;3.55;;;9.40;99.90;;;;;;4946264;28;20086;-65
2022/11/18 07:46:47;;;;;;;10.45;4.03;;;9.40;99.90;;;;;;4961741;28;20204;-65
2022/11/18 07:49:13;;;;;;;9.00;3.80;;;9.40;99.90;;;;;;4960471;28;20735;-65
2022/11/18 07:51:39;;;;;;;7.20;3.60;;;9.40;99.90;;;;;;4977069;28;20503;-65
2022/11/18 07:54:15;;;;;;;8.63;4.03;;;9.50;99.90;;;;;;4961742;28;20038;-64
2022/11/18 07:56:41;;;;;;;9.13;3.95;;;9.50;99.90;;;;;;4943939;28;20047;-64
2022/11/18 07:59:07;;;;;;;11.88;4.70;;;9.50;99.90;;;;;;4962553;28;20047;-65
2022/11/18 08:01:33;;;;;;;12.73;6.80;;;9.50;99.90;;;;;;4962102;28;20743;-65
2022/11/18 08:04:07;;;;;;;10.57;5.22;;;9.50;99.90;;;;;;4963455;28;20081;-65
2022/11/18 08:06:33;;;;;;;9.50;4.25;;;9.40;99.90;;;;;;4966832;28;20537;-65
2022/11/18 08:08:59;;;;;;;9.93;4.40;;;9.30;99.90;;;;;;4968632;28;20094;-64
2022/11/18 08:11:25;;;;;;;11.40;4.40;;;9.30;99.90;;;;;;4965657;28;20034;-64
2022/11/18 08:13:51;;;;;;;9.40;4.32;;;9.30;99.90;;;;;;4967157;28;20078;-64
2022/11/18 08:16:19;;;;;;;10.05;4.20;;;9.30;99.90;;;;;;4962843;28;20608;-65
2022/11/18 08:18:46;;;;;;;9.38;4.40;;;9.30;99.90;;;;;;4963008;28;20027;-65
2022/11/18 08:21:13;;;;;;;12.65;4.10;;;9.40;99.90;;;;;;4964571;28;20500;-65
2022/11/18 08:23:38;;;;;;;8.80;4.25;;;9.40;99.90;;;;;;4971841;28;20130;-65
2022/11/18 08:26:08;;;;;;;7.50;4.03;;;9.30;99.90;;;;;;4964238;28;20255;-65
2022/11/18 08:28:34;;;;;;;9.38;4.47;;;9.30;99.90;;;;;;4953135;28;20035;-64
2022/11/18 08:31:07;;;;;;;8.60;4.63;;;9.20;99.90;;;;;;4948807;28;20509;-64
2022/11/18 08:33:32;;;;;;;10.68;4.15;;;9.30;99.90;;;;;;4968319;28;20124;-64
2022/11/18 08:36:04;;;;;;;11.55;4.32;;;9.30;99.90;;;;;;4965143;28;20034;-65
2022/11/18 08:38:29;;;;;;;8.27;4.22;;;9.30;99.90;;;;;;4946670;28;20468;-65
2022/11/18 08:40:55;;;;;;;9.02;3.78;;;9.30;99.90;;;;;;4955050;28;20078;-65
2022/11/18 08:43:20;;;;;;;8.50;4.07;;;9.40;99.90;;;;;;4977625;28;20042;-65
2022/11/18 08:45:46;;;;;;;5.20;3.75;;;9.40;99.90;;;;;;4965452;28;20050;-65
2022/11/18 08:48:12;;;;;;;8.00;4.30;;;9.40;99.90;;;;;;4965863;28;20521;-66
2022/11/18 08:50:37;;;;;;;7.88;4.35;;;9.50;99.90;;;;;;4961058;28;20066;-65
2022/11/18 08:53:03;;;;;;;11.55;4.50;;;9.40;99.90;;;;;;4977871;28;20043;-66
2022/11/18 08:55:28;;;;;;;10.23;4.13;;;9.40;99.90;;;;;;4964148;28;20031;-66
2022/11/18 08:57:54;;;;;;;21.60;13.38;;;9.40;99.90;;;;;;4968705;28;20047;-65
2022/11/18 09:00:20;;;;;;;19.52;10.10;;;9.40;99.90;;;;;;4962469;28;20053;-64
2022/11/18 09:02:45;;;;;;;16.20;4.57;;;9.50;99.90;;;;;;4966527;28;20118;-64
2022/11/18 09:05:11;;;;;;;9.77;3.90;;;9.50;99.90;;;;;;4963953;28;20042;-64
2022/11/18 09:07:36;;;;;;;6.43;4.13;;;9.40;99.90;;;;;;4967237;28;20658;-64
2022/11/18 09:10:02;;;;;;;12.35;4.53;;;9.80;99.90;;;;;;4968260;28;20153;-65
2022/11/18 09:12:28;;;;;;;8.90;3.95;;;9.60;99.90;;;;;;4965872;28;20038;-65
2022/11/18 09:14:53;;;;;;;11.13;4.78;;;9.60;99.90;;;;;;4964825;28;20042;-65
2022/11/18 09:17:19;;;;;;;11.13;4.50;;;9.60;99.90;;;;;;4965658;28;20046;-65
2022/11/18 09:19:44;;;;;;;10.25;4.75;;;9.60;99.90;;;;;;4964818;28;20093;-65
2022/11/18 09:22:10;;;;;;;8.80;4.38;;;9.50;99.90;;;;;;4967353;28;20042;-65
2022/11/18 09:24:36;;;;;;;8.88;4.57;;;9.50;99.90;;;;;;4964192;28;20395;-65
2022/11/18 09:27:04;;;;;;;14.68;4.85;;;9.70;99.90;;;;;;4949470;28;20154;-65
2022/11/18 09:29:29;;;;;;;8.75;4.20;;;9.80;99.90;;;;;;4957312;28;20046;-65
2022/11/18 09:31:55;;;;;;;15.55;4.75;;;9.80;99.90;;;;;;4960871;28;20077;-65
2022/11/18 09:34:22;;;;;;;9.20;4.75;;;9.90;99.90;;;;;;4925388;28;20031;-65
2022/11/18 09:36:47;;;;;;;9.73;4.40;;;9.90;99.90;;;;;;4916448;29;20740;-65
2022/11/18 09:39:13;;;;;;;10.88;4.32;;;10.00;99.90;;;;;;4929490;29;20118;-66
2022/11/18 09:42:11;;;;;;;10.70;4.38;;;10.00;99.90;;;;;;4905793;29;20591;-65
2022/11/18 09:44:47;;;;;;;9.90;4.25;;;10.10;99.90;;;;;;4930400;28;20475;-65
2022/11/18 09:47:23;;;;;;;11.32;4.28;;;10.30;99.90;;;;;;4922979;29;20122;-65
2022/11/18 09:49:49;;;;;;;11.48;4.57;;;10.30;99.90;;;;;;4926140;29;20047;-66
2022/11/18 09:52:23;;;;;;;8.40;4.22;;;10.50;99.90;;;;;;4923170;29;20043;-65
2022/11/18 09:54:49;;;;;;;13.40;4.72;;;10.40;99.90;;;;;;4922016;29;20038;-64
2022/11/18 09:57:36;;;;;;;10.20;4.30;;;10.50;99.90;;;;;;4931013;28;20039;-65
2022/11/18 10:00:09;;;;;;;13.07;4.20;;;10.50;99.90;;;;;;4923039;29;20119;-65
2022/11/18 10:02:53;;;;;;;12.45;4.13;;;10.50;99.90;;;;;;4921910;29;20038;-65
2022/11/18 10:05:25;;;;;;;17.92;4.28;;;10.40;99.90;;;;;;4925352;28;20051;-65
2022/11/18 10:08:19;;;;;;;6.00;3.55;;;10.60;99.90;;;;;;4919964;28;20500;-65
2022/11/18 10:10:55;;;;;;;;;;;10.70;99.90;;;;;;4923725;29;20052;-65
2022/11/18 10:13:31;;;;;;;11.80;3.83;;;10.70;99.90;;;;;;4924012;29;20019;-65
2022/11/18 10:16:30;;;;;;;10.57;3.30;;;10.70;99.90;;;;;;4922178;28;20035;-66
2022/11/18 10:19:02;;;;;;;9.80;3.58;;;10.70;99.90;;;;;;4925213;28;20110;-65
2022/11/18 10:21:53;;;;;;;9.68;3.50;;;10.60;99.90;;;;;;4924534;28;20036;-65
2022/11/18 10:24:22;;;;;;;10.98;3.38;;;10.60;99.90;;;;;;4941391;28;20051;-65
2022/11/18 10:26:58;;;;;;;11.13;3.40;;;10.60;99.90;;;;;;4928152;29;20102;-66
2022/11/18 10:29:24;;;;;;;9.30;3.08;;;10.60;99.90;;;;;;4925583;28;20048;-65
2022/11/18 10:32:05;;;;;;;9.57;3.33;;;11.80;99.90;;;;;;4933280;28;20756;-66
2022/11/18 10:34:45;;;;;;;11.52;2.88;;;10.80;99.90;;;;;;4945808;28;20047;-65
2022/11/18 10:37:24;;;;;;;9.25;2.90;;;10.80;99.90;;;;;;4943371;28;20527;-65
2022/11/18 10:39:53;;;;;;;5.70;2.70;;;10.80;99.90;;;;;;4944054;28;20502;-64
2022/11/18 10:42:34;;;;;;;10.13;3.42;;;10.80;99.90;;;;;;4941101;28;20702;-65
2022/11/18 10:45:22;;;;;;;12.27;3.45;;;10.80;99.90;;;;;;4944402;28;20113;-65
2022/11/18 10:47:57;;;;;;;9.27;3.10;;;10.90;99.90;;;;;;4944561;28;20546;-65
2022/11/18 10:50:38;;;;;;;15.10;3.50;;;11.00;99.90;;;;;;4942213;28;20042;-65
2022/11/18 10:53:23;;;;;;;12.15;3.20;;;11.00;99.90;;;;;;4931898;28;20046;-65
2022/11/18 10:56:00;;;;;;;11.85;3.22;;;11.00;99.90;;;;;;4943742;28;20042;-66
2022/11/18 10:58:29;;;;;;;8.38;2.95;;;11.10;99.90;;;;;;4934518;28;20605;-65
2022/11/18 11:01:13;;;;;;;8.38;2.72;;;11.10;99.90;;;;;;4941993;28;20418;-66
2022/11/18 11:03:41;;;;;;;11.93;3.03;;;11.00;99.90;;;;;;4944047;28;20045;-65
2022/11/18 11:06:25;;;;;;;8.90;3.20;;;11.00;99.90;;;;;;4968590;28;20042;-65
2022/11/18 11:08:57;;;;;;;9.55;2.90;;;11.10;99.90;;;;;;4963142;28;20042;-66
2022/11/18 11:11:46;;;;;;;9.45;2.70;;;11.20;99.90;;;;;;4961584;28;20093;-65
2022/11/18 11:14:39;;;;;;;11.82;2.80;;;11.20;99.90;;;;;;4951612;28;20034;-65
2022/11/18 11:18:40;;;;;;;5.93;2.50;;;11.30;99.90;;;;;;4957350;28;20090;-66
2022/11/18 11:20:35;;;;;;;13.68;2.83;;;11.30;99.90;;;;;;4958109;28;20039;-66
2022/11/18 11:23:07;;;;;;;11.40;3.10;;;11.40;99.90;;;;;;4961370;28;20046;-65
2022/11/18 11:25:36;;;;;;;11.27;2.90;;;11.40;99.90;;;;;;4963447;28;20582;-65
2022/11/18 11:28:26;;;;;;;14.43;3.38;;;11.50;99.90;;;;;;4960434;28;20031;-66
2022/11/18 11:31:18;;;;;;;9.48;2.50;;;11.50;99.90;;;;;;4960481;28;20627;-66
2022/11/18 11:33:54;;;;;;;8.20;2.75;;;11.60;99.90;;;;;;4942160;28;20085;-65
2022/11/18 11:36:24;;;;;;;8.77;3.03;;;11.70;99.90;;;;;;4953918;28;20367;-65
2022/11/18 11:38:57;;;;;;;10.05;2.83;;;11.90;99.90;;;;;;4961439;28;20257;-65
2022/11/18 11:41:25;;;;;;;9.52;2.88;;;12.00;99.90;;;;;;4952739;28;20039;-65
2022/11/18 11:44:04;;;;;;;6.40;2.47;;;12.00;99.90;;;;;;4952319;28;20042;-65
2022/11/18 11:49:51;;;;;;;8.25;2.53;;;12.00;99.90;;;;;;4957739;28;20101;-65
2022/11/18 11:52:43;;;;;;;7.70;2.28;;;12.10;99.90;;;;;;4966257;28;20479;-65
2022/11/18 11:55:08;;;;;;;10.80;2.40;;;12.20;99.90;;;;;;4959592;28;20118;-65
2022/11/18 11:58:00;;;;;;;11.77;2.90;;;12.10;99.90;;;;;;4964972;28;20146;-65
2022/11/18 12:00:27;;;;;;;7.97;2.35;;;11.90;99.90;;;;;;4938105;28;20498;-65
2022/11/18 12:03:19;;;;;;;12.32;2.53;;;11.90;99.90;;;;;;4963450;28;20031;-65
2022/11/18 12:05:45;;;;;;;7.90;2.42;;;11.90;99.90;;;;;;4949364;28;20043;-65
2022/11/18 12:08:27;;;;;;;8.80;2.75;;;12.00;99.90;;;;;;4942681;28;20028;-64
2022/11/18 12:10:59;;;;;;;8.73;2.50;;;12.00;99.90;;;;;;4943739;28;20066;-64
2022/11/18 12:13:42;;;;;;;7.50;2.13;;;12.00;99.90;;;;;;4945167;28;20918;-64
2022/11/18 12:16:41;;;;;;;8.30;2.40;;;12.00;99.90;;;;;;4944107;28;20071;-64
2022/11/18 12:19:16;;;;;;;10.93;2.97;;;12.00;99.90;;;;;;4944715;28;20023;-63
2022/11/18 12:21:44;;;;;;;14.55;2.63;;;12.00;99.90;;;;;;4943283;28;20039;-64
2022/11/18 12:24:16;;;;;;;14.45;2.72;;;12.10;99.90;;;;;;4941677;28;20051;-64
2022/11/18 12:26:42;;;;;;;7.88;2.60;;;12.10;99.90;;;;;;4949510;28;21133;-64
2022/11/18 12:29:20;;;;;;;9.60;2.30;;;12.20;99.90;;;;;;4945158;28;20070;-64
2022/11/18 12:32:00;;;;;;;10.65;2.53;;;12.20;99.90;;;;;;4943393;28;20452;-64
2022/11/18 12:34:39;;;;;;;12.10;2.83;;;12.30;99.90;;;;;;4947809;28;20031;-65
2022/11/18 12:37:23;;;;;;;13.25;2.97;;;12.30;99.90;;;;;;4947333;28;20070;-64
2022/11/18 12:39:56;;;;;;;11.15;2.75;;;12.40;99.90;;;;;;4944171;28;20387;-65
2022/11/18 12:45:41;;;;;;;8.60;2.15;;;12.30;99.90;;;;;;4943691;28;20055;-66
2022/11/18 12:48:26;;;;;;;7.60;2.20;;;12.20;99.90;;;;;;4947947;28;20031;-65
2022/11/18 12:50:58;;;;;;;6.70;2.28;;;12.20;99.90;;;;;;4952880;28;20503;-65
2022/11/18 12:53:31;;;;;;;13.02;2.70;;;12.40;99.90;;;;;;4949606;28;20720;-65
2022/11/18 12:55:57;;;;;;;7.90;2.83;;;12.40;99.90;;;;;;4945165;28;20070;-65
2022/11/18 12:58:27;;;;;;;10.48;2.20;;;12.50;99.90;;;;;;4945276;28;20709;-66
2022/11/18 13:01:05;;;;;;;6.47;2.25;;;12.50;99.90;;;;;;4942501;28;20042;-66
2022/11/18 13:03:31;;;;;;;9.98;2.50;;;12.40;99.90;;;;;;4944062;28;20039;-66
2022/11/18 13:06:00;;;;;;;9.52;2.47;;;12.30;99.90;;;;;;4946156;28;20046;-65
2022/11/18 13:08:27;;;;;;;10.38;2.65;;;12.40;99.90;;;;;;4945093;28;20066;-65
2022/11/18 13:19:29;;;;;;;9.15;2.90;;;12.30;99.90;;;;;;4961390;28;20041;-66
2022/11/18 13:24:49;;;;;;;14.57;3.33;;;12.40;99.90;;;;;;4943233;28;20034;-65
2022/11/18 13:27:40;;;;;;;10.80;2.75;;;12.30;99.90;;;;;;4962557;28;20097;-66
2022/11/18 13:30:11;;;;;;;7.50;2.47;;;12.40;99.90;;;;;;4948373;28;20046;-66
2022/11/18 13:32:43;;;;;;;8.38;3.15;;;12.40;99.90;;;;;;4952339;28;20043;-66
2022/11/18 13:35:20;;;;;;;8.45;2.80;;;12.30;99.90;;;;;;4933508;28;20466;-66
2022/11/18 13:37:51;;;;;;;8.35;2.83;;;12.20;99.90;;;;;;4945499;28;20036;-66
2022/11/18 13:40:27;;;;;;;11.27;3.33;;;12.20;99.90;;;;;;4942799;28;20153;-67